Lee, Florida
Current Conditions -  °F | °C
As of 11:35 AM on Thursday 29 Jan 2015 (Local Time) from K24J Reporting Station
Clear Clear  
Wind Chill: 59°   Ceiling: Unl
Heat Index: 59°   Visibility: 10mi
Dew Point: 43°   Wind: 0mph
Humidity: 55%   Direction: NA
Pressure: 30.37"   Gusts: NA
Location:  30.42°N, 83.3°W
Report Text: K24J 291635Z AUTO 00000KT 10SM CLR 15/06 A3037 RMK AO1
Loading
Personal Weather Stations






























Interactive Weather Map New forecast layout! Learn more

10-Day Weather Forecast

Advertisements
Track Severe Weather on mobile